Map

Track Data

SID SEASON NUMBER BASIN SUBBASIN NAME ISO_TIME NATURE LAT LON WMO_WIND WMO_PRES WMO_AGENCY TRACK_TYPE DIST2LAND LANDFALL IFLAG USA_AGENCY USA_ATCF_ID USA_LAT USA_LON USA_RECORD USA_STATUS USA_WIND USA_PRES USA_SSHS USA_R34_NE USA_R34_SE USA_R34_SW USA_R34_NW USA_R50_NE USA_R50_SE USA_R50_SW USA_R50_NW USA_R64_NE USA_R64_SE USA_R64_SW USA_R64_NW USA_POCI USA_ROCI USA_RMW USA_EYE TOKYO_LAT TOKYO_LON TOKYO_GRADE TOKYO_WIND TOKYO_PRES TOKYO_R50_DIR TOKYO_R50_LONG TOKYO_R50_SHORT TOKYO_R30_DIR TOKYO_R30_LONG TOKYO_R30_SHORT TOKYO_LAND CMA_LAT CMA_LON CMA_CAT CMA_WIND CMA_PRES HKO_LAT HKO_LON HKO_CAT HKO_WIND HKO_PRES NEWDELHI_LAT NEWDELHI_LON NEWDELHI_GRADE NEWDELHI_WIND NEWDELHI_PRES NEWDELHI_CI NEWDELHI_DP NEWDELHI_POCI REUNION_LAT REUNION_LON REUNION_TYPE REUNION_WIND REUNION_PRES REUNION_TNUM REUNION_CI REUNION_RMW REUNION_R34_NE REUNION_R34_SE REUNION_R34_SW REUNION_R34_NW REUNION_R50_NE REUNION_R50_SE REUNION_R50_SW REUNION_R50_NW REUNION_R64_NE REUNION_R64_SE REUNION_R64_SW REUNION_R64_NW BOM_LAT BOM_LON BOM_TYPE BOM_WIND BOM_PRES BOM_TNUM BOM_CI BOM_RMW BOM_R34_NE BOM_R34_SE BOM_R34_SW BOM_R34_NW BOM_R50_NE BOM_R50_SE BOM_R50_SW BOM_R50_NW BOM_R64_NE BOM_R64_SE BOM_R64_SW BOM_R64_NW BOM_ROCI BOM_POCI BOM_EYE BOM_POS_METHOD BOM_PRES_METHOD NADI_LAT NADI_LON NADI_CAT NADI_WIND NADI_PRES WELLINGTON_LAT WELLINGTON_LON WELLINGTON_WIND WELLINGTON_PRES DS824_LAT DS824_LON DS824_STAGE DS824_WIND DS824_PRES TD9636_LAT TD9636_LON TD9636_STAGE TD9636_WIND TD9636_PRES TD9635_LAT TD9635_LON TD9635_WIND TD9635_PRES TD9635_ROCI NEUMANN_LAT NEUMANN_LON NEUMANN_CLASS NEUMANN_WIND NEUMANN_PRES MLC_LAT MLC_LON MLC_CLASS MLC_WIND MLC_PRES USA_GUST BOM_GUST BOM_GUST_PER REUNION_GUST REUNION_GUST_PER USA_SEAHGT USA_SEARAD_NE USA_SEARAD_SE USA_SEARAD_SW USA_SEARAD_NW STORM_SPEED STORM_DIR
1917292N10073 1917 48 NI AS NOT_NAMED 1917-10-19 00:00:00 TS 10.3000 73.1000 main 298 290 _________O____ -1 10.3000 73.1000 TC 30 7 324
1917292N10073 1917 48 NI AS NOT_NAMED 1917-10-19 03:00:00 TS 10.5684 72.9018 main 295 294 _________PO___ -1 10.7025 72.8026 TC 30 10.3000 73.1000 1 8 323
1917292N10073 1917 48 NI AS NOT_NAMED 1917-10-19 06:00:00 TS 10.9301 72.6195 main 308 303 _________OP___ -1 11.1000 72.5000 TC 30 10.6752 72.7987 1 9 322
1917292N10073 1917 48 NI AS NOT_NAMED 1917-10-19 09:00:00 TS 11.3073 72.3232 main 318 313 _________PP___ -1 11.4925 72.1924 TC 30 11.0603 72.4976 1 9 323
1917292N10073 1917 48 NI AS NOT_NAMED 1917-10-19 12:00:00 TS 11.6826 72.0489 main 328 324 _________OP___ -1 11.9000 71.9000 TC 30 11.4651 72.1978 1 10 327
1917292N10073 1917 48 NI AS NOT_NAMED 1917-10-19 15:00:00 TS 12.1250 71.7712 main 335 332 _________PO___ -1 12.3500 71.6424 TC 30 11.9000 71.9000 1 11 329
1917292N10073 1917 48 NI AS NOT_NAMED 1917-10-19 18:00:00 TS 12.5833 71.5037 main 355 353 _________OP___ -1 12.8000 71.4000 TC 30 12.3665 71.6075 1 11 330
1917292N10073 1917 48 NI AS NOT_NAMED 1917-10-19 21:00:00 TS 13.0425 71.2303 main 372 360 _________PP___ -1 13.2525 71.1276 TC 30 12.8325 71.3330 1 10 330
1917292N10073 1917 48 NI AS NOT_NAMED 1917-10-20 00:00:00 TS 13.4286 70.9960 main 366 360 _________OP___ -1 13.6000 70.9000 TC 30 13.2572 71.0919 1 7 328
1917292N10073 1917 48 NI AS NOT_NAMED 1917-10-20 03:00:00 TS 13.6687 70.8349 main 368 364 _________PO___ -1 13.7375 70.7699 TC 30 13.6000 70.9000 1 5 326
1917292N10073 1917 48 NI AS NOT_NAMED 1917-10-20 06:00:00 TS 13.8055 70.7351 main 374 369 _________OP___ -1 13.8000 70.7000 TC 30 13.8111 70.7701 1 3 329
1917292N10073 1917 48 NI AS NOT_NAMED 1917-10-20 09:00:00 TS 13.9449 70.6660 main 369 365 _________PP___ -1 13.9500 70.6425 TC 30 13.9398 70.6894 1 3 336
1917292N10073 1917 48 NI AS NOT_NAMED 1917-10-20 12:00:00 TS 14.0618 70.6195 main 372 372 _________OP___ -1 14.1000 70.6000 TC 30 14.0236 70.6390 1 2 336
1917292N10073 1917 48 NI AS NOT_NAMED 1917-10-20 15:00:00 TS 14.1500 70.5750 main 368 368 _________PO___ -1 14.2000 70.5500 TC 30 14.1000 70.6000 1 2 335
1917292N10073 1917 48 NI AS NOT_NAMED 1917-10-20 18:00:00 TS 14.2645 70.5214 main 373 369 _________OP___ -1 14.3000 70.5000 TC 30 14.2291 70.5428 1 3 339
1917292N10073 1917 48 NI AS NOT_NAMED 1917-10-20 21:00:00 TS 14.4037 70.4712 main 369 365 _________PP___ -1 14.4500 70.4500 TC 30 14.3575 70.4925 1 3 340
1917292N10073 1917 48 NI AS NOT_NAMED 1917-10-21 00:00:00 TS 14.5411 70.4230 main 375 371 _________OP___ -1 14.6000 70.4000 TC 30 14.4822 70.4459 1 3 339
1917292N10073 1917 48 NI AS NOT_NAMED 1917-10-21 03:00:00 TS 14.6537 70.3750 main 367 367 _________PO___ -1 14.7075 70.3500 TC 30 14.6000 70.4000 1 2 336
1917292N10073 1917 48 NI AS NOT_NAMED 1917-10-21 06:00:00 TS 14.7516 70.3250 main 372 372 _________OP___ -1 14.8000 70.3000 TC 30 14.7031 70.3500 1 2 333
1917292N10073 1917 48 NI AS NOT_NAMED 1917-10-21 09:00:00 TS 14.8500 70.2750 main 367 367 _________PP___ -1 14.9000 70.2500 TC 30 14.8000 70.3000 1 2 333
1917292N10073 1917 48 NI AS NOT_NAMED 1917-10-21 12:00:00 TS 14.9484 70.2250 main 377 371 _________OP___ -1 15.0000 70.2000 TC 30 14.8969 70.2500 1 2 333
1917292N10073 1917 48 NI AS NOT_NAMED 1917-10-21 15:00:00 TS 15.0463 70.1750 main 371 366 _________PO___ -1 15.0925 70.1500 TC 31 15.0000 70.2000 1 2 335
1917292N10073 1917 48 NI AS NOT_NAMED 1917-10-21 18:00:00 TS 15.1548 70.1270 main 372 367 _________OP___ -1 15.2000 70.1000 TC 32 15.1097 70.1540 1 3 340
1917292N10073 1917 48 NI AS NOT_NAMED 1917-10-21 21:00:00 TS 15.2850 70.0825 main 367 363 _________PP___ -1 15.3425 70.0575 TC 33 15.2275 70.1074 1 3 340
1917292N10073 1917 48 NI AS NOT_NAMED 1917-10-22 00:00:00 TS 15.4283 70.0286 main 373 366 _________OP___ -1 15.5000 70.0000 TC 34 15.3566 70.0571 1 3 337
1917292N10073 1917 48 NI AS NOT_NAMED 1917-10-22 03:00:00 TS 15.5713 69.9500 main 366 366 _________PO___ -1 15.6425 69.9000 TC 36 15.5000 70.0000 2 3 333
1917292N10073 1917 48 NI AS NOT_NAMED 1917-10-22 06:00:00 TS 15.7242 69.8681 main 374 371 _________OP___ -1 15.8000 69.8000 TC 39 15.6484 69.9362 2 4 337
1917292N10073 1917 48 NI AS NOT_NAMED 1917-10-22 09:00:00 TS 15.8987 69.8074 main 379 376 _________PP___ -1 15.9850 69.7499 TC 42 15.8125 69.8649 2 4 342
1917292N10073 1917 48 NI AS NOT_NAMED 1917-10-22 12:00:00 TS 16.0977 69.7431 main 386 384 _________OP___ -1 16.2000 69.7000 TC 45 15.9953 69.7862 2 5 341
1917292N10073 1917 48 NI AS NOT_NAMED 1917-10-22 15:00:00 TS 16.3213 69.6537 main 384 384 _________PO___ -1 16.4425 69.6075 TC 45 16.2000 69.7000 3 5 339
1917292N10073 1917 48 NI AS NOT_NAMED 1917-10-22 18:00:00 TS 16.5683 69.5516 main 388 388 _________OP___ -1 16.7000 69.5000 TC 45 16.4366 69.6032 3 5 339
1917292N10073 1917 48 NI AS NOT_NAMED 1917-10-22 21:00:00 TS 16.8250 69.4500 main 392 390 _________PP___ -1 16.9575 69.4000 TC 45 16.6925 69.5001 3 5 339
1917292N10073 1917 48 NI AS NOT_NAMED 1917-10-23 00:00:00 TS 17.0761 69.3485 main 400 394 _________OP___ -1 17.2000 69.3000 TC 45 16.9522 69.3969 3 5 338
1917292N10073 1917 48 NI AS NOT_NAMED 1917-10-23 03:00:00 TS 17.3038 69.2462 main 404 395 _________PO___ -1 17.4075 69.1925 TC 45 17.2000 69.3000 3 5 337
1917292N10073 1917 48 NI AS NOT_NAMED 1917-10-23 06:00:00 TS 17.5051 69.1568 main 395 380 _________OP___ -1 17.6000 69.1000 TC 45 17.4103 69.2137 3 4 340
1917292N10073 1917 48 NI AS NOT_NAMED 1917-10-23 09:00:00 TS 17.7037 69.0887 main 380 365 _________PP___ -1 17.8000 69.0425 TC 45 17.6075 69.1349 3 4 343
1917292N10073 1917 48 NI AS NOT_NAMED 1917-10-23 12:00:00 TS 17.9005 69.0318 main 365 346 _________OP___ -1 18.0000 69.0000 TC 45 17.8009 69.0637 3 4 346
1917292N10073 1917 48 NI AS NOT_NAMED 1917-10-23 15:00:00 TS 18.0962 68.9750 main 346 334 _________PO___ -1 18.1925 68.9500 TC 45 18.0000 69.0000 3 4 345
1917292N10073 1917 48 NI AS NOT_NAMED 1917-10-23 18:00:00 TS 18.3109 68.9194 main 334 316 _________OP___ -1 18.4000 68.9000 TC 45 18.2219 68.9387 3 5 347
1917292N10073 1917 48 NI AS NOT_NAMED 1917-10-23 21:00:00 TS 18.5500 68.8675 main 306 294 _________PP___ -1 18.6500 68.8500 TC 45 18.4500 68.8850 3 5 349
1917292N10073 1917 48 NI AS NOT_NAMED 1917-10-24 00:00:00 TS 18.7891 68.8194 main 294 276 _________OP___ -1 18.9000 68.8000 TC 45 18.6781 68.8387 3 5 348
1917292N10073 1917 48 NI AS NOT_NAMED 1917-10-24 03:00:00 TS 19.0037 68.7713 main 276 263 _________PO___ -1 19.1075 68.7425 TC 45 18.9000 68.8000 3 4 348
1917292N10073 1917 48 NI AS NOT_NAMED 1917-10-24 06:00:00 TS 19.2016 68.7298 main 263 246 _________OP___ -1 19.3000 68.7000 TC 45 19.1031 68.7597 3 4 353
1917292N10073 1917 48 NI AS NOT_NAMED 1917-10-24 09:00:00 TS 19.3962 68.7100 main 246 229 _________PP___ -1 19.4925 68.6925 TC 45 19.3000 68.7275 3 4 356
1917292N10073 1917 48 NI AS NOT_NAMED 1917-10-24 12:00:00 TS 19.5984 68.7033 main 229 213 _________OP___ -1 19.7000 68.7000 TC 45 19.4969 68.7066 3 4 0
1917292N10073 1917 48 NI AS NOT_NAMED 1917-10-24 15:00:00 TS 19.8250 68.6963 main 213 198 _________PO___ -1 19.9500 68.6925 TC 45 19.7000 68.7000 3 4 356
1917292N10073 1917 48 NI AS NOT_NAMED 1917-10-24 18:00:00 TS 20.0140 68.6678 main 198 190 _________OP___ -1 20.2000 68.7000 TC 45 19.8280 68.6356 3 3 351
1917292N10073 1917 48 NI AS NOT_NAMED 1917-10-24 21:00:00 TS 20.1470 68.6435 main 198 167 _________PP___ -1 20.3174 68.6908 TC 45 19.9767 68.5963 3 4 5
1917292N10073 1917 48 NI AS NOT_NAMED 1917-10-25 00:00:00 TS 20.4060 68.7169 main 167 114 _________OP___ -1 20.6000 68.8000 TC 45 20.2121 68.6338 3 9 20
1917292N10073 1917 48 NI AS NOT_NAMED 1917-10-25 03:00:00 TS 20.9587 68.9587 main 98 23 _________PO___ -1 21.3175 69.1173 TC 41 20.6000 68.8000 3 15 25
1917292N10073 1917 48 NI AS NOT_NAMED 1917-10-25 06:00:00 TS 21.7330 69.3721 main 15 0 _________OP___ -1 22.2000 69.6000 TC 37 21.2661 69.1441 3 18 29
1917292N10073 1917 48 NI AS NOT_NAMED 1917-10-25 09:00:00 TS 22.5317 69.9002 main 11 0 _________PP___ -1 22.9876 70.1772 TC 33 22.0757 69.6231 3 19 33
1917292N10073 1917 48 NI AS NOT_NAMED 1917-10-25 12:00:00 TS 23.3112 70.4956 main 0 0 _________OP___ -1 23.7000 70.8000 TC 30 22.9224 70.1911 3 18 36
1917292N10073 1917 48 NI AS NOT_NAMED 1917-10-25 15:00:00 TS 24.0010 71.0717 main 0 0 _________PO___ -1 24.3020 71.3433 TC 30 23.7000 70.8000 1 16 40
1917292N10073 1917 48 NI AS NOT_NAMED 1917-10-25 18:00:00 TS 24.5304 71.6188 main 0 0 _________OP___ -1 24.8000 71.9000 TC 30 24.3282 71.4080 1 14 47
1917292N10073 1917 48 NI AS NOT_NAMED 1917-10-25 21:00:00 TS 24.9837 72.2157 main 0 0 _________PP___ -1 25.2208 72.5265 TC 30 24.8257 72.0085 1 14 52
1917292N10073 1917 48 NI AS NOT_NAMED 1917-10-26 00:00:00 TS 25.3569 72.8031 main 0 0 _________OP___ -1 25.6000 73.2000 TC 30 25.2353 72.6046 1 11 55
1917292N10073 1917 48 NI AS NOT_NAMED 1917-10-26 03:00:00 NR 25.6000 73.2000 main 0 __________O___ -1 TC 25.6000 73.2000 1 9 56

About IBTrACS Database

This database is a web-friendly format of International Best Track Archive for Climate Stewardship (IBTrACS), a global best track data archive curated by NOAA dating back to 1842.

Updated: 2021-10-08